createdAt,value
2023-07-05T00:00:22.039Z,64.09
2023-07-05T00:03:13.887Z,64.13
2023-07-05T00:05:45.688Z,64.65
2023-07-05T00:08:17.337Z,64.74
2023-07-05T00:10:49.367Z,64.26
2023-07-05T00:13:21.096Z,63.99
2023-07-05T00:15:53.164Z,63.97
2023-07-05T00:18:25.132Z,64.29
2023-07-05T00:21:00.614Z,64.74
2023-07-05T00:23:33.728Z,64.94
2023-07-05T00:26:06.660Z,64.89
2023-07-05T00:28:38.499Z,65.00
2023-07-05T00:31:10.149Z,65.26
2023-07-05T00:33:41.923Z,65.20
2023-07-05T00:36:13.639Z,65.70
2023-07-05T00:38:45.680Z,66.13
2023-07-05T00:41:18.541Z,66.09
2023-07-05T00:43:52.821Z,66.31
2023-07-05T00:46:27.003Z,66.70
2023-07-05T00:49:04.845Z,67.18
2023-07-05T00:51:42.750Z,66.94
2023-07-05T00:54:16.498Z,66.36
2023-07-05T00:56:52.988Z,66.67
2023-07-05T00:59:27.820Z,66.52
2023-07-05T01:02:03.782Z,66.14
2023-07-05T01:04:37.024Z,66.19
2023-07-05T01:07:09.070Z,66.26
2023-07-05T01:09:41.069Z,66.84
2023-07-05T01:12:21.131Z,66.92
2023-07-05T01:15:02.625Z,66.49
2023-07-05T01:17:44.262Z,66.68
2023-07-05T01:20:29.542Z,67.41
2023-07-05T01:23:30.393Z,68.26
2023-07-05T01:26:22.229Z,68.47
2023-07-05T01:29:32.960Z,68.73
2023-07-05T01:32:13.427Z,70.01
2023-07-05T01:34:52.174Z,70.63
2023-07-05T01:37:35.379Z,71.05
2023-07-05T01:40:37.722Z,71.39
2023-07-05T01:43:13.399Z,72.36
2023-07-05T01:45:55.274Z,72.31
2023-07-05T01:48:35.710Z,71.84
2023-07-05T01:51:14.353Z,72.49
2023-07-05T01:53:55.186Z,72.67
2023-07-05T01:56:33.207Z,72.97
2023-07-05T01:59:06.479Z,73.54
2023-07-05T02:01:39.821Z,74.11
2023-07-05T02:04:15.635Z,74.44
2023-07-05T02:06:48.253Z,73.63
2023-07-05T02:09:19.948Z,73.31
2023-07-05T02:11:52.103Z,73.50
2023-07-05T02:14:24.436Z,73.05
2023-07-05T02:16:56.102Z,72.78
2023-07-05T02:19:27.940Z,72.34
2023-07-05T02:21:59.656Z,72.18
2023-07-05T02:24:31.317Z,72.27
2023-07-05T02:27:02.978Z,72.66
2023-07-05T02:29:34.733Z,72.65
2023-07-05T02:32:07.199Z,72.93
2023-07-05T02:34:40.715Z,73.08
2023-07-05T02:37:13.275Z,72.61
2023-07-05T02:39:44.885Z,72.41
2023-07-05T02:42:16.573Z,72.43
2023-07-05T02:44:50.385Z,72.64
2023-07-05T02:47:22.730Z,72.49
2023-07-05T02:49:54.819Z,72.17
2023-07-05T02:52:27.206Z,72.14
2023-07-05T02:54:58.865Z,72.14
2023-07-05T02:57:30.533Z,72.32
2023-07-05T03:00:02.492Z,72.35
2023-07-05T03:02:34.941Z,72.25
2023-07-05T03:05:12.284Z,71.96
2023-07-05T03:07:44.228Z,72.07
2023-07-05T03:10:16.138Z,72.05
2023-07-05T03:12:47.897Z,72.19
2023-07-05T03:15:21.279Z,72.33
2023-07-05T03:17:53.500Z,72.37
2023-07-05T03:20:26.111Z,72.34
2023-07-05T03:22:58.129Z,72.33
2023-07-05T03:25:29.745Z,72.47
2023-07-05T03:28:03.463Z,72.54
2023-07-05T03:30:36.288Z,72.68
2023-07-05T03:33:08.049Z,72.73
2023-07-05T03:35:40.334Z,73.02
2023-07-05T03:38:12.315Z,73.35
2023-07-05T03:40:45.022Z,73.46
2023-07-05T03:43:17.215Z,73.48
2023-07-05T03:45:48.873Z,73.73
2023-07-05T03:48:21.100Z,73.82
2023-07-05T03:50:56.455Z,73.79
2023-07-05T03:53:31.914Z,73.84
2023-07-05T03:56:06.092Z,74.00
2023-07-05T03:58:37.816Z,74.11
2023-07-05T04:01:13.856Z,74.24
2023-07-05T04:03:47.142Z,74.30
2023-07-05T04:06:19.826Z,74.42
2023-07-05T04:08:51.861Z,74.44
2023-07-05T04:11:24.189Z,74.56
2023-07-05T04:13:57.398Z,74.50
2023-07-05T04:16:29.935Z,74.68
2023-07-05T04:19:01.700Z,74.76
2023-07-05T04:21:33.827Z,74.77
2023-07-05T04:24:06.399Z,74.88
2023-07-05T04:26:38.535Z,75.00
2023-07-05T04:29:10.560Z,74.94
2023-07-05T04:31:42.251Z,74.99
2023-07-05T04:34:13.909Z,74.97
2023-07-05T04:36:46.229Z,75.20
2023-07-05T04:39:18.640Z,74.92
2023-07-05T04:41:50.389Z,74.95
2023-07-05T04:44:22.132Z,74.91
2023-07-05T04:46:53.753Z,74.95
2023-07-05T04:49:25.577Z,74.98
2023-07-05T04:51:57.548Z,74.86
2023-07-05T04:54:29.168Z,74.56
2023-07-05T04:57:01.261Z,74.54
2023-07-05T04:59:32.996Z,74.28
2023-07-05T05:02:06.730Z,74.32
2023-07-05T05:04:39.149Z,74.28
2023-07-05T05:07:46.902Z,74.06
2023-07-05T05:10:19.563Z,73.88
2023-07-05T05:12:51.484Z,73.54
2023-07-05T05:15:23.196Z,73.26
2023-07-05T05:17:55.165Z,72.84
2023-07-05T05:20:27.225Z,72.68
2023-07-05T05:22:58.927Z,72.45
2023-07-05T05:25:31.061Z,72.50
2023-07-05T05:28:03.148Z,72.46
2023-07-05T05:30:36.330Z,72.29
2023-07-05T05:33:08.827Z,72.16
2023-07-05T05:35:40.615Z,71.86
2023-07-05T05:38:12.411Z,71.86
2023-07-05T05:40:44.035Z,71.73
2023-07-05T05:43:16.000Z,71.63
2023-07-05T05:45:47.876Z,71.52
2023-07-05T05:48:20.026Z,71.31
2023-07-05T05:50:51.796Z,71.10
2023-07-05T05:53:23.583Z,70.63
2023-07-05T05:55:56.629Z,70.12
2023-07-05T05:58:28.714Z,69.65
2023-07-05T06:01:01.966Z,69.74
2023-07-05T06:03:34.114Z,69.61
2023-07-05T06:06:06.024Z,69.55
2023-07-05T06:08:37.550Z,69.59
2023-07-05T06:11:09.217Z,69.07
2023-07-05T06:13:41.052Z,67.33
2023-07-05T06:16:15.104Z,66.13
2023-07-05T06:18:48.049Z,64.66
2023-07-05T06:21:20.264Z,63.82
2023-07-05T06:23:52.252Z,62.91
2023-07-05T06:26:23.883Z,63.06
2023-07-05T06:28:55.699Z,62.27
2023-07-05T06:31:34.358Z,62.22
2023-07-05T06:34:06.777Z,61.58
2023-07-05T06:36:38.791Z,61.98
2023-07-05T06:39:10.720Z,61.15
2023-07-05T06:41:42.952Z,60.66
2023-07-05T06:44:14.903Z,60.66
2023-07-05T06:46:47.153Z,60.41
2023-07-05T06:49:20.241Z,60.30
2023-07-05T06:51:52.983Z,60.35
2023-07-05T06:54:24.912Z,60.08
2023-07-05T06:56:57.302Z,59.73
2023-07-05T06:59:29.528Z,58.55
2023-07-05T07:02:02.816Z,57.66
2023-07-05T07:04:34.973Z,57.23
2023-07-05T07:07:08.241Z,56.16
2023-07-05T07:09:42.244Z,56.55
2023-07-05T07:12:14.493Z,56.21
2023-07-05T07:14:46.520Z,55.17
2023-07-05T07:17:18.370Z,54.12
2023-07-05T07:19:51.776Z,54.28
2023-07-05T07:22:25.266Z,53.26
2023-07-05T07:24:57.477Z,53.16
2023-07-05T07:27:29.170Z,52.95
2023-07-05T07:30:01.262Z,51.97
2023-07-05T07:32:33.412Z,51.04
2023-07-05T07:35:05.892Z,51.11
2023-07-05T07:37:37.531Z,51.13
2023-07-05T07:40:11.549Z,51.29
2023-07-05T07:42:43.765Z,51.28
2023-07-05T07:45:15.946Z,51.08
2023-07-05T07:47:47.661Z,50.72
2023-07-05T07:50:19.492Z,50.79
2023-07-05T07:52:51.208Z,49.66
2023-07-05T07:55:23.781Z,49.85
2023-07-05T07:57:55.831Z,49.44
2023-07-05T08:00:29.095Z,48.82
2023-07-05T08:03:01.285Z,48.07
2023-07-05T08:05:34.622Z,48.79
2023-07-05T08:08:06.718Z,48.94
2023-07-05T08:10:38.656Z,48.86
2023-07-05T08:13:10.432Z,48.46
2023-07-05T08:15:42.149Z,47.03
2023-07-05T08:18:14.109Z,47.22
2023-07-05T08:20:47.274Z,47.76
2023-07-05T08:23:19.024Z,47.74
2023-07-05T08:25:56.341Z,48.08
2023-07-05T08:28:29.432Z,47.81
2023-07-05T08:31:03.632Z,47.77
2023-07-05T08:33:37.244Z,47.39
2023-07-05T08:36:20.230Z,47.44
2023-07-05T08:38:53.365Z,47.82
2023-07-05T08:41:32.809Z,47.68
2023-07-05T08:44:16.394Z,47.66
2023-07-05T08:46:55.880Z,48.03
2023-07-05T08:49:31.552Z,47.98
2023-07-05T08:52:04.762Z,48.28
2023-07-05T08:54:46.936Z,48.42
2023-07-05T08:57:25.424Z,47.87
2023-07-05T09:00:01.758Z,48.03
2023-07-05T09:02:33.577Z,48.43
2023-07-05T09:05:14.951Z,48.12
2023-07-05T09:07:56.175Z,48.17
2023-07-05T09:10:35.970Z,48.04
2023-07-05T09:13:18.010Z,48.23
2023-07-05T09:15:58.490Z,48.28
2023-07-05T09:18:36.001Z,48.54
2023-07-05T09:21:23.943Z,48.05
2023-07-05T09:24:02.474Z,48.16
2023-07-05T09:26:39.314Z,48.49
2023-07-05T09:29:18.681Z,48.40
2023-07-05T09:31:53.067Z,48.11
2023-07-05T09:34:30.956Z,48.53
2023-07-05T09:37:09.731Z,48.74
2023-07-05T09:39:53.451Z,48.51
2023-07-05T09:42:31.122Z,47.80
2023-07-05T09:45:03.844Z,47.84
2023-07-05T09:47:35.924Z,47.77
2023-07-05T09:50:17.609Z,47.71
2023-07-05T09:52:53.807Z,47.79
2023-07-05T09:55:30.086Z,47.44
2023-07-05T09:58:05.953Z,46.89
2023-07-05T10:00:38.925Z,46.70
2023-07-05T10:03:16.280Z,46.04
2023-07-05T10:05:56.310Z,45.41
2023-07-05T10:08:28.413Z,45.78
2023-07-05T10:11:04.717Z,45.95
2023-07-05T10:13:34.800Z,45.83
2023-07-05T10:16:06.941Z,46.26
2023-07-05T10:18:42.211Z,46.36
2023-07-05T10:21:20.865Z,46.30
2023-07-05T10:23:52.857Z,45.99
2023-07-05T10:26:25.696Z,45.12
2023-07-05T10:28:59.665Z,44.85
2023-07-05T10:31:33.228Z,45.22
2023-07-05T10:34:21.549Z,45.13
2023-07-05T10:36:54.384Z,44.99
2023-07-05T10:39:28.588Z,44.19
2023-07-05T10:42:02.423Z,44.10
2023-07-05T10:44:37.781Z,43.74
2023-07-05T10:47:15.556Z,44.32
2023-07-05T10:49:51.754Z,43.46
2023-07-05T10:52:26.145Z,43.52
2023-07-05T10:55:10.229Z,43.94
2023-07-05T10:57:45.966Z,44.15
2023-07-05T11:00:32.394Z,44.16
2023-07-05T11:03:11.893Z,44.60
2023-07-05T11:05:47.588Z,44.58
2023-07-05T11:08:28.132Z,44.46
2023-07-05T11:11:04.700Z,45.07
2023-07-05T11:13:36.533Z,44.67
2023-07-05T11:16:08.960Z,43.51
2023-07-05T11:18:40.941Z,43.30
2023-07-05T11:21:37.353Z,43.29
2023-07-05T11:24:10.814Z,43.26
2023-07-05T11:26:46.003Z,43.36
2023-07-05T11:29:53.357Z,42.96
2023-07-05T11:32:29.785Z,42.36
2023-07-05T11:35:04.511Z,41.90
2023-07-05T11:37:43.967Z,42.09
2023-07-05T11:41:02.307Z,41.70
2023-07-05T11:43:39.640Z,40.53
2023-07-05T11:46:38.873Z,40.26
2023-07-05T11:49:35.373Z,39.32
2023-07-05T11:52:23.688Z,39.18
2023-07-05T11:55:05.280Z,39.39
2023-07-05T11:57:42.395Z,38.54
2023-07-05T12:00:19.657Z,38.19
2023-07-05T12:02:56.669Z,38.20
2023-07-05T12:05:32.531Z,37.88
2023-07-05T12:08:20.332Z,37.69
2023-07-05T12:10:56.291Z,38.17
2023-07-05T12:13:33.933Z,37.32
2023-07-05T12:16:09.218Z,36.80
2023-07-05T12:18:41.142Z,36.40
2023-07-05T12:21:15.312Z,37.17
2023-07-05T12:23:51.832Z,37.89
2023-07-05T12:26:28.808Z,38.07
2023-07-05T12:29:04.835Z,37.30
2023-07-05T12:31:36.488Z,36.69
2023-07-05T12:34:20.399Z,36.95
2023-07-05T12:36:52.387Z,37.39
2023-07-05T12:39:24.487Z,37.48
2023-07-05T12:42:06.547Z,37.48
2023-07-05T12:44:40.463Z,36.80
2023-07-05T12:47:16.631Z,36.90
2023-07-05T12:49:46.971Z,37.36
2023-07-05T12:52:26.193Z,37.23
2023-07-05T12:54:58.240Z,37.53
2023-07-05T12:57:34.616Z,37.64
2023-07-05T13:00:12.599Z,37.36
2023-07-05T13:02:46.941Z,37.67
2023-07-05T13:05:19.567Z,37.59
2023-07-05T13:07:55.144Z,37.80
2023-07-05T13:10:27.020Z,37.67
2023-07-05T13:13:00.592Z,37.95
2023-07-05T13:15:39.637Z,37.81
2023-07-05T13:18:28.018Z,37.75
2023-07-05T13:21:17.383Z,37.42
2023-07-05T13:23:51.774Z,36.57
2023-07-05T13:26:33.654Z,36.70
2023-07-05T13:29:17.373Z,36.69
2023-07-05T13:31:53.658Z,36.33
2023-07-05T13:34:26.849Z,36.12
2023-07-05T13:37:02.779Z,36.04
2023-07-05T13:39:37.714Z,36.55
2023-07-05T13:42:14.448Z,37.07
2023-07-05T13:44:49.366Z,37.17
2023-07-05T13:47:21.569Z,36.27
2023-07-05T13:49:53.757Z,36.56
2023-07-05T13:52:26.244Z,36.64
2023-07-05T13:54:57.995Z,36.23
2023-07-05T13:57:30.537Z,36.65
2023-07-05T14:00:02.274Z,36.68
2023-07-05T14:02:35.957Z,36.68
2023-07-05T14:05:11.045Z,36.92
2023-07-05T14:07:42.978Z,37.12
2023-07-05T14:10:16.913Z,36.49
2023-07-05T14:12:48.843Z,36.10
2023-07-05T14:15:38.615Z,36.08
2023-07-05T14:18:15.989Z,36.25
2023-07-05T14:20:48.860Z,36.26
2023-07-05T14:23:21.092Z,36.46
2023-07-05T14:25:53.912Z,36.43
2023-07-05T14:28:25.782Z,36.89
2023-07-05T14:30:57.754Z,36.48
2023-07-05T14:33:29.994Z,36.25
2023-07-05T14:36:02.230Z,36.31
2023-07-05T14:38:34.313Z,36.28
2023-07-05T14:41:06.015Z,36.68
2023-07-05T14:43:37.978Z,36.84
2023-07-05T14:46:10.240Z,37.32
2023-07-05T14:48:42.584Z,37.20
2023-07-05T14:51:16.969Z,36.86
2023-07-05T14:53:49.397Z,37.49
2023-07-05T14:56:21.147Z,37.12
2023-07-05T14:58:52.850Z,36.89
2023-07-05T15:01:24.693Z,36.72
2023-07-05T15:03:56.892Z,37.29
2023-07-05T15:06:28.524Z,37.09
2023-07-05T15:09:01.147Z,37.10
2023-07-05T15:11:33.086Z,37.33
2023-07-05T15:14:07.084Z,37.23
2023-07-05T15:16:39.152Z,37.33
2023-07-05T15:19:11.476Z,36.67
2023-07-05T15:21:44.567Z,36.10
2023-07-05T15:24:16.745Z,36.60
2023-07-05T15:26:48.541Z,36.60
2023-07-05T15:29:20.675Z,36.57
2023-07-05T15:31:53.711Z,37.05
2023-07-05T15:34:26.260Z,37.14
2023-07-05T15:36:58.091Z,37.45
2023-07-05T15:39:30.249Z,37.41
2023-07-05T15:42:01.870Z,38.05
2023-07-05T15:44:33.594Z,38.03
2023-07-05T15:47:06.103Z,39.07
2023-07-05T15:49:37.922Z,38.61
2023-07-05T15:52:11.082Z,38.68
2023-07-05T15:54:43.140Z,39.04
2023-07-05T15:57:16.470Z,39.04
2023-07-05T15:59:58.918Z,39.37
2023-07-05T16:02:41.769Z,39.61
2023-07-05T16:05:14.025Z,39.94
2023-07-05T16:07:45.689Z,40.52
2023-07-05T16:10:17.888Z,40.69
2023-07-05T16:12:52.060Z,41.75
2023-07-05T16:15:24.220Z,42.55
2023-07-05T16:17:56.627Z,42.60
2023-07-05T16:20:29.474Z,42.66
2023-07-05T16:23:01.570Z,42.67
2023-07-05T16:25:34.379Z,42.83
2023-07-05T16:28:07.091Z,43.24
2023-07-05T16:30:38.788Z,43.28
2023-07-05T16:33:10.774Z,43.54
2023-07-05T16:35:52.498Z,43.99
2023-07-05T16:38:24.384Z,44.45
2023-07-05T16:41:00.163Z,44.55
2023-07-05T16:43:32.542Z,44.46
2023-07-05T16:46:06.360Z,44.53
2023-07-05T16:48:38.548Z,44.73
2023-07-05T16:51:12.056Z,44.81
2023-07-05T16:53:45.196Z,44.72
2023-07-05T16:56:17.268Z,44.85
2023-07-05T16:58:50.919Z,45.10
2023-07-05T17:01:24.526Z,45.05
2023-07-05T17:03:56.872Z,45.05
2023-07-05T17:06:29.315Z,45.16
2023-07-05T17:09:02.542Z,44.94
2023-07-05T17:11:34.740Z,45.06
2023-07-05T17:14:07.320Z,45.15
2023-07-05T17:16:40.113Z,45.17
2023-07-05T17:19:13.610Z,45.21
2023-07-05T17:21:45.425Z,45.35
2023-07-05T17:24:23.151Z,45.45
2023-07-05T17:26:55.044Z,46.32
2023-07-05T17:29:26.793Z,46.99
2023-07-05T17:31:58.541Z,46.97
2023-07-05T17:34:31.150Z,46.75
2023-07-05T17:37:06.873Z,46.78
2023-07-05T17:39:38.645Z,46.84
2023-07-05T17:42:13.955Z,46.96
2023-07-05T17:44:45.683Z,47.03
2023-07-05T17:47:17.744Z,47.42
2023-07-05T17:49:49.647Z,48.02
2023-07-05T17:52:21.413Z,49.75
2023-07-05T17:54:53.317Z,51.32
2023-07-05T17:57:25.779Z,51.26
2023-07-05T17:59:57.431Z,51.70
2023-07-05T18:02:29.666Z,51.98
2023-07-05T18:05:02.033Z,51.66
2023-07-05T18:07:34.196Z,51.68
2023-07-05T18:10:07.168Z,51.76
2023-07-05T18:12:39.340Z,51.80
2023-07-05T18:15:12.956Z,52.11
2023-07-05T18:17:44.663Z,52.27
2023-07-05T18:20:17.374Z,52.59
2023-07-05T18:22:49.698Z,52.49
2023-07-05T18:25:21.950Z,52.52
2023-07-05T18:27:53.674Z,52.81
2023-07-05T18:30:25.366Z,52.84
2023-07-05T18:32:57.401Z,52.97
2023-07-05T18:35:29.434Z,53.13
2023-07-05T18:38:01.281Z,53.26
2023-07-05T18:40:33.952Z,53.51
2023-07-05T18:43:05.991Z,53.70
2023-07-05T18:45:56.902Z,54.04
2023-07-05T18:48:31.261Z,54.30
2023-07-05T18:51:03.523Z,54.74
2023-07-05T18:53:35.815Z,54.94
2023-07-05T18:56:10.831Z,55.46
2023-07-05T18:58:42.828Z,55.49
2023-07-05T19:01:17.628Z,55.66
2023-07-05T19:03:51.654Z,55.87
2023-07-05T19:06:25.221Z,55.92
2023-07-05T19:08:57.492Z,56.05
2023-07-05T19:11:31.879Z,56.22
2023-07-05T19:14:03.586Z,56.05
2023-07-05T19:16:35.350Z,56.24
2023-07-05T19:19:08.816Z,56.78
2023-07-05T19:21:40.898Z,56.94
2023-07-05T19:24:12.843Z,57.27
2023-07-05T19:26:45.436Z,57.36
2023-07-05T19:29:19.856Z,57.77
2023-07-05T19:31:51.976Z,58.10
2023-07-05T19:34:24.261Z,58.62
2023-07-05T19:36:56.671Z,58.72
2023-07-05T19:39:29.132Z,58.47
2023-07-05T19:42:02.167Z,58.60
2023-07-05T19:44:34.662Z,58.84
2023-07-05T19:47:07.623Z,58.73
2023-07-05T19:49:40.136Z,58.68
2023-07-05T19:52:12.401Z,59.06
2023-07-05T19:54:44.080Z,58.94
2023-07-05T19:57:15.775Z,59.05
2023-07-05T19:59:48.209Z,59.07
2023-07-05T20:02:20.862Z,59.03
2023-07-05T20:04:52.614Z,59.09
2023-07-05T20:07:24.305Z,59.13
2023-07-05T20:09:56.545Z,59.40
2023-07-05T20:12:28.409Z,59.46
2023-07-05T20:15:00.365Z,59.46
2023-07-05T20:17:32.425Z,59.75
2023-07-05T20:20:05.232Z,59.77
2023-07-05T20:22:36.949Z,59.82
2023-07-05T20:25:10.558Z,59.72
2023-07-05T20:27:43.002Z,60.07
2023-07-05T20:30:17.294Z,60.46
2023-07-05T20:32:49.524Z,60.37
2023-07-05T20:35:21.856Z,60.59
2023-07-05T20:37:59.741Z,60.79
2023-07-05T20:40:34.261Z,60.70
2023-07-05T20:43:06.199Z,61.10
2023-07-05T20:45:37.821Z,61.06
2023-07-05T20:48:10.408Z,61.34
2023-07-05T20:50:42.442Z,61.54
2023-07-05T20:53:16.222Z,61.66
2023-07-05T20:55:48.173Z,61.97
2023-07-05T20:58:20.625Z,62.62
2023-07-05T21:00:56.853Z,63.25
2023-07-05T21:03:29.097Z,63.30
2023-07-05T21:06:02.663Z,63.52
2023-07-05T21:08:36.968Z,63.86
2023-07-05T21:11:09.222Z,63.76
2023-07-05T21:13:41.124Z,63.70
2023-07-05T21:16:14.396Z,64.10
2023-07-05T21:18:46.080Z,64.15
2023-07-05T21:21:18.678Z,64.41
2023-07-05T21:23:50.863Z,64.74
2023-07-05T21:26:22.670Z,64.69
2023-07-05T21:28:54.679Z,64.67
2023-07-05T21:31:27.141Z,64.92
2023-07-05T21:33:58.851Z,64.93
2023-07-05T21:36:32.284Z,64.79
2023-07-05T21:39:06.104Z,65.07
2023-07-05T21:41:38.271Z,65.49
2023-07-05T21:44:14.048Z,65.69
2023-07-05T21:46:46.686Z,65.92
2023-07-05T21:49:18.733Z,66.03
2023-07-05T21:51:51.903Z,66.27
2023-07-05T21:54:23.892Z,66.56
2023-07-05T21:56:57.528Z,66.82
2023-07-05T21:59:29.669Z,66.87
2023-07-05T22:02:01.728Z,67.20
2023-07-05T22:04:33.693Z,67.53
2023-07-05T22:07:05.870Z,67.57
2023-07-05T22:09:38.270Z,67.76
2023-07-05T22:12:13.654Z,67.73
2023-07-05T22:14:59.553Z,67.53
2023-07-05T22:17:33.541Z,67.08
2023-07-05T22:20:12.706Z,66.95
2023-07-05T22:22:45.059Z,66.95
2023-07-05T22:25:16.882Z,66.84
2023-07-05T22:27:48.840Z,66.68
2023-07-05T22:30:20.857Z,66.59
2023-07-05T22:32:55.190Z,66.25
2023-07-05T22:35:29.681Z,66.20
2023-07-05T22:38:01.438Z,66.41
2023-07-05T22:40:33.775Z,66.18
2023-07-05T22:43:06.548Z,66.55
2023-07-05T22:45:38.993Z,66.99
2023-07-05T22:48:10.662Z,67.20
2023-07-05T22:50:44.418Z,67.74
2023-07-05T22:53:16.309Z,68.08
2023-07-05T22:55:48.329Z,68.09
2023-07-05T22:58:21.037Z,68.54
2023-07-05T23:00:54.564Z,68.60
2023-07-05T23:03:26.845Z,68.59
2023-07-05T23:06:04.801Z,68.74
2023-07-05T23:08:38.122Z,68.74
2023-07-05T23:11:13.156Z,68.73
2023-07-05T23:13:47.191Z,68.58
2023-07-05T23:16:19.387Z,68.79
2023-07-05T23:18:51.664Z,68.92
2023-07-05T23:21:23.405Z,69.14
2023-07-05T23:23:55.477Z,69.17
2023-07-05T23:26:27.447Z,69.32
2023-07-05T23:28:59.113Z,69.32
2023-07-05T23:31:32.745Z,69.32
2023-07-05T23:34:06.153Z,69.57
2023-07-05T23:36:37.858Z,69.59
2023-07-05T23:39:11.779Z,69.70
2023-07-05T23:41:46.050Z,69.76
2023-07-05T23:44:18.714Z,69.84
2023-07-05T23:46:52.330Z,69.88
2023-07-05T23:49:24.764Z,70.10
2023-07-05T23:51:57.849Z,70.43
2023-07-05T23:54:32.952Z,70.32
2023-07-05T23:57:03.786Z,70.48
2023-07-05T23:59:33.895Z,70.30
